Time;durP1;ratioP1;P1;durP2;ratioP2;P2;SDS_P1;SDS_P2;PMS_P1;PMS_P2;Temp;Humidity;BMP_temperature;BMP_pressure;BME280_temperature;BME280_humidity;BME280_pressure;Samples;Min_cycle;Max_cycle;Signal;HPM_P1;HPM_P2
2022/04/24 00:02:07;;;;;;;10.38;7.55;;;10.50;99.90;;;;;;4955759;28;20046;-73
2022/04/24 00:04:33;;;;;;;9.10;7.78;;;10.50;99.90;;;;;;4970535;28;20050;-73
2022/04/24 00:06:59;;;;;;;8.85;7.70;;;10.50;99.90;;;;;;4979811;28;20043;-73
2022/04/24 00:09:25;;;;;;;11.00;7.38;;;10.40;99.90;;;;;;4975390;28;20124;-73
2022/04/24 00:11:50;;;;;;;10.70;7.95;;;10.40;99.90;;;;;;4973084;28;20182;-73
2022/04/24 00:14:17;;;;;;;12.75;8.07;;;10.40;99.90;;;;;;4961711;28;20049;-73
2022/04/24 00:16:44;;;;;;;11.55;7.72;;;10.30;99.90;;;;;;4959119;28;20126;-73
2022/04/24 00:19:10;;;;;;;9.68;7.47;;;10.30;99.90;;;;;;4958834;28;20043;-73
2022/04/24 00:21:35;;;;;;;8.40;7.57;;;10.30;99.90;;;;;;4942569;29;20049;-73
2022/04/24 00:24:01;;;;;;;8.52;7.32;;;10.30;99.90;;;;;;4942631;28;20043;-73
2022/04/24 00:26:27;;;;;;;7.90;7.10;;;10.20;99.90;;;;;;4958340;28;20122;-73
2022/04/24 00:28:53;;;;;;;15.07;7.18;;;10.20;99.90;;;;;;4962767;28;20097;-73
2022/04/24 00:31:19;;;;;;;8.80;7.90;;;10.10;99.90;;;;;;4976478;28;20070;-73
2022/04/24 00:33:45;;;;;;;8.18;7.32;;;10.10;99.90;;;;;;4974957;28;20077;-73
2022/04/24 00:36:10;;;;;;;9.20;7.68;;;10.00;99.90;;;;;;4967352;28;20039;-73
2022/04/24 00:38:36;;;;;;;9.63;7.28;;;10.00;99.90;;;;;;4958427;28;20050;-73
2022/04/24 00:41:03;;;;;;;8.07;7.28;;;10.00;99.90;;;;;;4960419;28;20098;-73
2022/04/24 00:43:29;;;;;;;9.88;6.93;;;9.90;99.90;;;;;;4977514;28;20077;-73
2022/04/24 00:46:14;;;;;;;9.18;7.28;;;9.90;99.90;;;;;;4969471;28;20070;-73
2022/04/24 00:48:43;;;;;;;7.95;7.15;;;9.90;99.90;;;;;;4963733;28;20085;-73
2022/04/24 00:51:10;;;;;;;7.88;7.07;;;9.90;99.90;;;;;;4976367;28;20129;-73
2022/04/24 00:53:36;;;;;;;12.98;7.13;;;9.90;99.90;;;;;;4973438;28;20077;-73
2022/04/24 00:56:03;;;;;;;10.13;6.97;;;9.80;99.90;;;;;;4967193;28;20081;-73
2022/04/24 00:58:30;;;;;;;9.20;7.28;;;9.80;99.90;;;;;;4958157;28;20047;-73
2022/04/24 01:00:57;;;;;;;10.95;7.32;;;9.80;99.90;;;;;;4958114;28;20046;-73
2022/04/24 01:03:23;;;;;;;7.47;6.75;;;9.80;99.90;;;;;;4964125;28;20051;-73
2022/04/24 01:05:49;;;;;;;8.38;6.93;;;9.70;99.90;;;;;;4958321;29;20045;-73
2022/04/24 01:08:15;;;;;;;11.90;7.25;;;9.70;99.90;;;;;;4958138;28;20100;-73
2022/04/24 01:10:41;;;;;;;7.32;6.47;;;9.70;99.90;;;;;;4957809;28;20047;-73
2022/04/24 01:13:06;;;;;;;8.65;7.13;;;9.70;99.90;;;;;;4942198;28;20066;-73
2022/04/24 01:15:34;;;;;;;8.10;6.95;;;9.60;99.90;;;;;;4958263;28;20438;-73
2022/04/24 01:18:00;;;;;;;8.88;7.07;;;9.60;99.90;;;;;;4958157;29;20050;-73
2022/04/24 01:20:26;;;;;;;10.07;6.53;;;9.60;99.90;;;;;;4958057;28;20047;-73
2022/04/24 01:22:53;;;;;;;12.02;6.88;;;9.60;99.90;;;;;;4955155;28;20095;-73
2022/04/24 01:25:18;;;;;;;8.50;6.32;;;9.50;99.90;;;;;;4954964;28;20058;-73
2022/04/24 01:27:44;;;;;;;9.38;6.80;;;9.50;99.90;;;;;;4954895;28;20561;-73
2022/04/24 01:30:10;;;;;;;7.35;6.65;;;9.40;99.90;;;;;;4966214;28;20398;-73
2022/04/24 01:32:38;;;;;;;10.82;7.07;;;9.50;99.90;;;;;;4964479;28;20054;-73
2022/04/24 01:35:05;;;;;;;8.70;7.20;;;9.40;99.90;;;;;;4973262;28;20050;-73
2022/04/24 01:37:31;;;;;;;9.15;7.38;;;9.40;99.90;;;;;;4973559;28;20046;-73
2022/04/24 01:39:56;;;;;;;8.10;7.25;;;9.30;99.90;;;;;;4974931;28;20521;-73
2022/04/24 01:42:23;;;;;;;8.45;7.55;;;9.30;99.90;;;;;;4968463;28;20059;-73
2022/04/24 01:44:48;;;;;;;10.05;7.45;;;9.30;99.90;;;;;;4969712;28;20047;-73
2022/04/24 01:47:14;;;;;;;9.30;7.45;;;9.20;99.90;;;;;;4969877;28;20552;-73
2022/04/24 01:49:40;;;;;;;8.77;7.15;;;9.10;99.90;;;;;;4973657;28;20381;-73
2022/04/24 01:52:06;;;;;;;7.95;7.15;;;9.10;99.90;;;;;;4973685;28;20093;-73
2022/04/24 01:54:32;;;;;;;10.07;7.28;;;9.10;99.90;;;;;;4966740;28;20039;-73
2022/04/24 01:56:58;;;;;;;9.52;7.28;;;9.10;99.90;;;;;;4954396;28;20109;-73
2022/04/24 01:59:23;;;;;;;11.02;7.45;;;9.10;99.90;;;;;;4955657;28;20070;-73
2022/04/24 02:01:49;;;;;;;8.38;7.10;;;9.00;99.90;;;;;;4954352;28;20670;-73
2022/04/24 02:04:16;;;;;;;8.35;7.15;;;9.00;99.90;;;;;;4954390;29;20405;-73
2022/04/24 02:06:42;;;;;;;9.10;7.28;;;9.00;99.90;;;;;;4955398;28;20135;-73
2022/04/24 02:09:08;;;;;;;7.93;6.72;;;9.00;99.90;;;;;;4954178;28;20071;-73
2022/04/24 02:11:34;;;;;;;9.80;7.07;;;9.00;99.90;;;;;;4964711;28;20433;-73
2022/04/24 02:13:59;;;;;;;8.00;7.20;;;8.90;99.90;;;;;;4955965;28;20410;-73
2022/04/24 02:16:25;;;;;;;7.65;6.90;;;8.90;99.90;;;;;;4954338;29;20456;-73
2022/04/24 02:18:51;;;;;;;12.30;7.40;;;8.90;99.90;;;;;;4956961;28;20074;-73
2022/04/24 02:21:17;;;;;;;8.82;7.47;;;8.80;99.90;;;;;;4963790;28;20035;-73
2022/04/24 02:23:42;;;;;;;9.13;6.72;;;8.80;99.90;;;;;;4949373;28;20078;-73
2022/04/24 02:26:08;;;;;;;9.35;7.45;;;8.80;99.90;;;;;;4970741;28;20521;-73
2022/04/24 02:28:33;;;;;;;8.13;6.78;;;8.80;99.90;;;;;;4966288;28;20042;-73
2022/04/24 02:30:59;;;;;;;8.25;6.68;;;8.80;99.90;;;;;;4962543;28;20050;-73
2022/04/24 02:33:25;;;;;;;8.23;7.43;;;8.80;99.90;;;;;;4973377;28;20425;-73
2022/04/24 02:35:50;;;;;;;9.60;7.50;;;8.80;99.90;;;;;;4957243;28;20042;-73
2022/04/24 02:38:16;;;;;;;10.90;7.63;;;8.70;99.90;;;;;;4937847;29;20065;-73
2022/04/24 02:40:41;;;;;;;9.85;7.38;;;8.70;99.90;;;;;;4953565;28;20058;-73
2022/04/24 02:43:07;;;;;;;8.05;6.78;;;8.60;99.90;;;;;;4970305;28;20109;-73
2022/04/24 02:45:34;;;;;;;11.07;7.25;;;8.60;99.90;;;;;;4961583;28;20101;-73
2022/04/24 02:47:59;;;;;;;10.48;7.30;;;8.60;99.90;;;;;;4967657;28;20035;-73
2022/04/24 02:50:25;;;;;;;8.77;6.93;;;8.60;99.90;;;;;;4972241;28;20038;-73
2022/04/24 02:52:53;;;;;;;8.82;7.68;;;8.60;99.90;;;;;;4965140;28;20601;-73
2022/04/24 02:55:19;;;;;;;8.02;7.18;;;8.60;99.90;;;;;;4951564;29;20050;-73
2022/04/24 02:57:46;;;;;;;9.60;7.03;;;8.60;99.90;;;;;;4970663;28;20039;-73
2022/04/24 03:00:14;;;;;;;11.02;7.20;;;8.50;99.90;;;;;;4970604;28;20055;-73
2022/04/24 03:02:42;;;;;;;10.02;7.30;;;8.50;99.90;;;;;;4970448;28;20089;-73
2022/04/24 03:05:12;;;;;;;9.18;7.70;;;8.50;99.90;;;;;;4969453;28;20072;-73
2022/04/24 03:07:38;;;;;;;9.02;8.00;;;8.40;99.90;;;;;;4971780;28;20057;-73
2022/04/24 03:10:04;;;;;;;8.63;7.80;;;8.40;99.90;;;;;;4964468;28;20375;-73
2022/04/24 03:12:30;;;;;;;9.75;7.43;;;8.40;99.90;;;;;;4972339;28;20042;-73
2022/04/24 03:14:56;;;;;;;8.80;7.88;;;8.30;99.90;;;;;;4966050;28;20109;-73
2022/04/24 03:17:21;;;;;;;9.43;7.47;;;8.30;99.90;;;;;;4959508;28;20062;-73
2022/04/24 03:19:47;;;;;;;9.18;7.20;;;8.30;99.90;;;;;;4964599;28;20489;-73
2022/04/24 03:22:13;;;;;;;9.40;7.43;;;8.20;99.90;;;;;;4937043;29;20055;-73
2022/04/24 03:24:39;;;;;;;8.05;7.32;;;8.20;99.90;;;;;;4937912;28;20050;-73
2022/04/24 03:27:05;;;;;;;8.15;7.40;;;8.20;99.90;;;;;;4972054;28;20043;-73
2022/04/24 03:29:30;;;;;;;8.38;7.47;;;8.10;99.90;;;;;;4969166;28;20038;-73
2022/04/24 03:31:56;;;;;;;9.73;7.35;;;8.10;99.90;;;;;;4960566;28;20418;-73
2022/04/24 03:34:21;;;;;;;8.27;7.30;;;8.10;99.90;;;;;;4952671;28;20414;-73
2022/04/24 03:36:47;;;;;;;8.98;7.57;;;8.10;99.90;;;;;;4957483;28;20126;-73
2022/04/24 03:39:13;;;;;;;8.30;6.88;;;8.10;99.90;;;;;;4966985;28;20129;-73
2022/04/24 03:41:38;;;;;;;8.48;7.57;;;8.10;99.90;;;;;;4971617;28;20045;-73
2022/04/24 03:44:04;;;;;;;8.20;7.40;;;8.00;99.90;;;;;;4966513;28;20050;-73
2022/04/24 03:46:30;;;;;;;10.95;7.82;;;8.00;99.90;;;;;;4961668;28;20047;-73
2022/04/24 03:48:56;;;;;;;10.23;7.85;;;8.00;99.90;;;;;;4970999;28;20398;-73
2022/04/24 03:51:22;;;;;;;8.80;7.28;;;8.00;99.90;;;;;;4966465;28;20038;-73
2022/04/24 03:53:47;;;;;;;7.97;7.03;;;8.00;99.90;;;;;;4968263;28;20382;-73
2022/04/24 03:56:13;;;;;;;9.70;7.13;;;8.00;99.90;;;;;;4962041;28;20374;-73
2022/04/24 03:58:39;;;;;;;8.70;7.80;;;7.90;99.90;;;;;;4971809;28;20530;-73
2022/04/24 04:01:05;;;;;;;11.13;7.45;;;7.90;99.90;;;;;;4952775;28;20450;-73
2022/04/24 04:03:30;;;;;;;8.05;7.22;;;7.90;99.90;;;;;;4952482;28;20387;-73
2022/04/24 04:05:56;;;;;;;10.95;7.25;;;7.80;99.90;;;;;;4952183;28;20573;-73
2022/04/24 04:08:21;;;;;;;9.13;7.97;;;7.80;99.90;;;;;;4952359;28;20047;-73
2022/04/24 04:10:47;;;;;;;9.80;7.38;;;7.80;99.90;;;;;;4960800;28;20062;-73
2022/04/24 04:13:13;;;;;;;9.77;8.38;;;7.80;99.90;;;;;;4936416;29;20097;-73
2022/04/24 04:15:39;;;;;;;9.20;7.88;;;7.80;99.90;;;;;;4969271;28;20386;-73
2022/04/24 04:18:04;;;;;;;9.85;7.90;;;7.70;99.90;;;;;;4971428;28;20129;-73
2022/04/24 04:20:30;;;;;;;9.27;7.85;;;7.70;99.90;;;;;;4971447;28;20501;-73
2022/04/24 04:22:56;;;;;;;12.85;7.57;;;7.70;99.90;;;;;;4971298;28;20523;-73
2022/04/24 04:25:23;;;;;;;8.63;7.82;;;7.70;99.90;;;;;;4971645;28;20512;-73
2022/04/24 04:27:50;;;;;;;10.35;7.95;;;7.70;99.90;;;;;;4970620;28;20053;-73
2022/04/24 04:30:16;;;;;;;11.20;7.97;;;7.70;99.90;;;;;;4962916;28;20073;-73
2022/04/24 04:32:41;;;;;;;10.35;8.70;;;7.70;99.90;;;;;;4969115;28;20038;-73
2022/04/24 04:35:09;;;;;;;8.45;7.60;;;7.70;99.90;;;;;;4966652;28;20549;-73
2022/04/24 04:37:42;;;;;;;10.85;7.72;;;7.70;99.90;;;;;;4967617;28;20382;-73
2022/04/24 04:40:10;;;;;;;9.68;7.72;;;7.60;99.90;;;;;;4969623;28;20235;-73
2022/04/24 04:42:36;;;;;;;11.57;8.05;;;7.60;99.90;;;;;;4945625;28;20065;-73
2022/04/24 04:45:03;;;;;;;9.57;7.72;;;7.60;99.90;;;;;;4960440;28;20493;-73
2022/04/24 04:47:29;;;;;;;8.95;8.05;;;7.60;99.90;;;;;;4970213;28;20047;-73
2022/04/24 04:49:55;;;;;;;9.98;7.90;;;7.60;99.90;;;;;;4971072;28;20042;-73
2022/04/24 04:52:22;;;;;;;9.55;7.70;;;7.60;99.90;;;;;;4966359;28;20552;-73
2022/04/24 04:54:48;;;;;;;10.43;7.82;;;7.60;99.90;;;;;;4952019;28;20098;-73
2022/04/24 04:57:14;;;;;;;9.48;8.00;;;7.60;99.90;;;;;;4954862;28;20509;-73
2022/04/24 04:59:40;;;;;;;9.27;7.80;;;7.60;99.90;;;;;;4955361;28;20138;-73
2022/04/24 05:02:05;;;;;;;8.80;7.78;;;7.60;99.90;;;;;;4966651;28;20098;-73
2022/04/24 05:04:31;;;;;;;8.88;7.97;;;7.60;99.90;;;;;;4955713;29;20042;-73
2022/04/24 05:06:57;;;;;;;8.73;7.65;;;7.60;99.90;;;;;;4955401;28;20035;-73
2022/04/24 05:09:23;;;;;;;9.88;8.20;;;7.60;99.90;;;;;;4955681;28;20043;-73
2022/04/24 05:11:49;;;;;;;13.93;8.30;;;7.60;99.90;;;;;;4958690;28;20405;-73
2022/04/24 05:14:15;;;;;;;9.13;8.23;;;7.70;99.90;;;;;;4974992;28;20408;-73
2022/04/24 05:16:41;;;;;;;9.10;8.10;;;7.70;99.90;;;;;;4974727;28;20093;-73
2022/04/24 05:19:07;;;;;;;9.50;7.82;;;7.70;99.90;;;;;;4970920;28;20046;-72
2022/04/24 05:21:33;;;;;;;9.38;7.28;;;7.70;99.90;;;;;;4970258;28;20039;-73
2022/04/24 05:24:00;;;;;;;9.40;7.60;;;7.80;99.90;;;;;;4974291;28;20485;-73
2022/04/24 05:26:28;;;;;;;8.10;7.30;;;7.80;99.90;;;;;;4972926;28;20642;-73
2022/04/24 05:28:54;;;;;;;8.68;7.78;;;7.90;99.90;;;;;;4974362;28;20409;-73
2022/04/24 05:31:20;;;;;;;9.43;7.80;;;7.90;99.90;;;;;;4965453;28;20089;-73
2022/04/24 05:33:46;;;;;;;8.52;7.25;;;7.90;99.90;;;;;;4963211;28;20060;-73
2022/04/24 05:36:12;;;;;;;9.55;7.75;;;8.00;99.90;;;;;;4968793;28;20047;-73
2022/04/24 05:38:38;;;;;;;11.02;7.28;;;8.00;99.90;;;;;;4972646;28;20042;-73
2022/04/24 05:41:04;;;;;;;8.75;7.65;;;8.00;99.90;;;;;;4965893;28;20401;-73
2022/04/24 05:43:30;;;;;;;11.85;8.02;;;8.00;99.90;;;;;;4967008;28;20496;-73
2022/04/24 05:45:56;;;;;;;9.30;7.78;;;8.10;99.90;;;;;;4962023;28;20509;-73
2022/04/24 05:48:22;;;;;;;8.80;7.35;;;8.20;99.90;;;;;;4963324;28;20038;-73
2022/04/24 05:50:48;;;;;;;7.70;7.00;;;8.20;99.90;;;;;;4968823;28;20493;-73
2022/04/24 05:53:14;;;;;;;10.82;7.38;;;8.20;99.90;;;;;;4970538;28;20409;-73
2022/04/24 05:55:40;;;;;;;9.07;7.20;;;8.30;99.90;;;;;;4963330;28;20049;-73
2022/04/24 05:58:06;;;;;;;9.40;7.63;;;8.30;99.90;;;;;;4970506;28;20466;-73
2022/04/24 06:00:32;;;;;;;8.98;7.03;;;8.30;99.90;;;;;;4964872;28;20043;-73
2022/04/24 06:03:00;;;;;;;9.13;6.95;;;8.40;99.90;;;;;;4964427;28;20532;-73
2022/04/24 06:05:25;;;;;;;9.07;7.03;;;8.40;99.90;;;;;;4989197;28;20458;-73
2022/04/24 06:07:51;;;;;;;8.63;7.05;;;8.40;99.90;;;;;;4973494;28;20078;-73
2022/04/24 06:10:17;;;;;;;10.95;7.68;;;8.50;99.90;;;;;;4973185;28;20034;-73
2022/04/24 06:12:50;;;;;;;9.95;7.65;;;8.60;99.90;;;;;;4965727;28;20062;-73
2022/04/24 06:15:20;;;;;;;10.00;7.22;;;8.60;99.90;;;;;;4973792;28;20046;-73
2022/04/24 06:17:47;;;;;;;11.15;6.90;;;8.70;99.90;;;;;;4973672;28;20062;-73
2022/04/24 06:20:13;;;;;;;8.73;6.93;;;8.70;99.90;;;;;;4972274;28;20046;-73
2022/04/24 06:22:59;;;;;;;8.57;7.60;;;8.80;99.90;;;;;;4972332;28;20054;-73
2022/04/24 06:25:31;;;;;;;7.82;7.03;;;8.90;99.90;;;;;;4970487;28;20520;-73
2022/04/24 06:27:58;;;;;;;10.13;7.10;;;9.00;99.90;;;;;;4958868;28;20077;-73
2022/04/24 06:30:26;;;;;;;8.75;7.72;;;9.10;99.90;;;;;;4969450;28;20045;-73
2022/04/24 06:32:52;;;;;;;10.23;7.00;;;9.10;99.90;;;;;;4968707;28;20046;-73
2022/04/24 06:35:19;;;;;;;10.77;7.28;;;9.10;99.90;;;;;;4967226;28;20051;-73
2022/04/24 06:37:49;;;;;;;8.52;7.50;;;9.20;99.90;;;;;;4969371;28;20043;-73
2022/04/24 06:40:16;;;;;;;9.95;7.90;;;9.20;99.90;;;;;;4969544;28;20039;-73
2022/04/24 06:42:55;;;;;;;9.13;7.32;;;9.20;99.90;;;;;;4971006;28;20118;-73
2022/04/24 06:45:42;;;;;;;10.70;7.70;;;9.30;99.90;;;;;;4969430;28;20035;-73
2022/04/24 06:48:13;;;;;;;11.23;7.63;;;9.30;99.90;;;;;;4962120;28;20037;-73
2022/04/24 06:50:41;;;;;;;10.55;7.43;;;9.40;99.90;;;;;;4968324;28;20050;-73
2022/04/24 06:53:09;;;;;;;9.65;7.85;;;9.50;99.90;;;;;;4967244;28;20036;-73
2022/04/24 06:55:39;;;;;;;11.20;7.57;;;9.60;99.90;;;;;;4968497;28;20154;-73
2022/04/24 06:58:07;;;;;;;10.15;6.97;;;9.60;99.90;;;;;;4965425;28;20409;-73
2022/04/24 07:00:36;;;;;;;9.20;7.78;;;9.70;99.90;;;;;;4966721;28;20096;-73
2022/04/24 07:03:16;;;;;;;10.68;8.32;;;9.70;99.90;;;;;;4967698;28;20053;-73
2022/04/24 07:05:42;;;;;;;8.98;7.53;;;9.80;99.90;;;;;;4970304;28;20046;-73
2022/04/24 07:08:08;;;;;;;9.00;7.70;;;9.80;99.90;;;;;;4970977;28;20035;-72
2022/04/24 07:10:35;;;;;;;8.88;7.35;;;9.90;99.90;;;;;;4967788;28;20042;-73
2022/04/24 07:13:01;;;;;;;8.52;7.63;;;10.00;99.90;;;;;;4964479;28;20046;-73
2022/04/24 07:15:30;;;;;;;8.35;7.45;;;10.10;99.90;;;;;;4963823;28;20051;-73
2022/04/24 07:17:57;;;;;;;8.88;7.00;;;10.20;99.90;;;;;;4964288;28;20067;-73
2022/04/24 07:20:23;;;;;;;10.60;7.22;;;10.30;99.90;;;;;;4964830;28;20039;-73
2022/04/24 07:22:51;;;;;;;10.40;7.28;;;10.30;99.90;;;;;;4964656;28;20134;-73
2022/04/24 07:25:22;;;;;;;9.25;7.28;;;10.50;99.90;;;;;;4964573;28;20045;-73
2022/04/24 07:27:48;;;;;;;8.98;6.53;;;10.60;99.90;;;;;;4965742;28;20162;-73
2022/04/24 07:30:15;;;;;;;9.75;7.13;;;10.80;99.90;;;;;;4963634;28;20049;-73
2022/04/24 07:32:47;;;;;;;9.57;6.95;;;10.90;99.90;;;;;;4962634;28;20047;-73
2022/04/24 07:35:15;;;;;;;9.82;7.15;;;11.10;99.90;;;;;;4968335;28;20043;-73
2022/04/24 07:37:42;;;;;;;6.85;6.15;;;11.30;99.90;;;;;;4968455;28;20058;-73
2022/04/24 07:40:10;;;;;;;9.10;6.35;;;11.50;99.90;;;;;;4966683;28;20054;-73
2022/04/24 07:42:53;;;;;;;10.57;6.55;;;11.70;99.90;;;;;;4965662;28;20190;-73
2022/04/24 07:45:24;;;;;;;;;;;11.90;99.90;;;;;;4951368;28;20042;-73
2022/04/24 07:47:52;;;;;;;7.88;5.85;;;12.00;99.90;;;;;;4968840;28;19918;-73
2022/04/24 07:50:19;;;;;;;9.95;6.20;;;12.10;99.90;;;;;;4964475;28;20042;-73
2022/04/24 07:52:47;;;;;;;6.95;5.80;;;12.20;99.90;;;;;;4968330;28;20042;-73
2022/04/24 07:55:19;;;;;;;7.72;6.07;;;12.20;99.90;;;;;;4960947;28;20047;-73
2022/04/24 07:57:46;;;;;;;;;;;12.30;99.90;;;;;;4962051;28;20043;-74
2022/04/24 08:00:13;;;;;;;7.70;5.78;;;12.50;99.90;;;;;;4966303;28;19929;-73
2022/04/24 08:02:54;;;;;;;8.73;5.45;;;12.50;99.90;;;;;;4966867;28;20054;-74
2022/04/24 08:05:24;;;;;;;8.10;5.45;;;12.50;99.90;;;;;;4967474;28;20035;-73
2022/04/24 08:07:51;;;;;;;7.63;5.00;;;12.60;99.90;;;;;;4960727;28;20053;-73
2022/04/24 08:10:19;;;;;;;6.55;5.07;;;12.80;99.90;;;;;;4963773;28;20067;-73
2022/04/24 08:12:46;;;;;;;6.65;4.90;;;12.80;99.90;;;;;;4959204;28;20035;-73
2022/04/24 08:15:15;;;;;;;5.93;4.90;;;13.00;99.90;;;;;;4964618;28;20047;-73
2022/04/24 08:17:40;;;;;;;5.95;4.53;;;13.10;97.80;;;;;;4967995;28;20042;-73
2022/04/24 08:20:09;;;;;;;7.75;4.55;;;13.30;99.60;;;;;;4965370;28;20082;-74
2022/04/24 08:22:42;;;;;;;6.22;4.30;;;13.40;99.00;;;;;;4967292;28;20476;-72
2022/04/24 08:25:10;;;;;;;5.15;3.80;;;13.40;99.50;;;;;;4969270;28;20039;-73
2022/04/24 08:27:37;;;;;;;7.28;4.20;;;13.50;97.80;;;;;;4963826;28;20035;-72
2022/04/24 08:30:08;;;;;;;5.53;3.50;;;13.60;97.40;;;;;;4963238;28;20038;-72
2022/04/24 08:32:34;;;;;;;5.90;3.20;;;13.60;97.00;;;;;;4964303;28;20031;-72
2022/04/24 08:35:00;;;;;;;5.38;3.30;;;13.70;93.30;;;;;;4971451;28;20051;-73
2022/04/24 08:37:26;;;;;;;6.57;3.60;;;13.70;93.20;;;;;;4955882;28;20079;-73
2022/04/24 08:39:53;;;;;;;7.65;3.35;;;13.80;92.10;;;;;;4955541;28;20043;-73
2022/04/24 08:42:21;;;;;;;5.43;3.15;;;14.00;90.70;;;;;;4967907;28;20069;-73
2022/04/24 08:44:51;;;;;;;4.75;3.67;;;14.10;90.10;;;;;;4963197;28;20053;-73
2022/04/24 08:47:19;;;;;;;7.15;3.72;;;14.20;92.10;;;;;;4975230;28;20393;-73
2022/04/24 08:49:45;;;;;;;5.97;3.47;;;14.30;90.90;;;;;;4965617;28;20090;-73
2022/04/24 08:52:13;;;;;;;5.43;3.28;;;14.40;86.40;;;;;;4955245;28;20043;-72
2022/04/24 08:54:41;;;;;;;5.90;3.03;;;14.60;86.50;;;;;;4975309;28;20038;-73
2022/04/24 08:57:08;;;;;;;8.35;3.30;;;14.70;87.50;;;;;;4959809;28;20035;-71
2022/04/24 08:59:36;;;;;;;4.88;2.60;;;14.90;83.60;;;;;;4969789;28;20133;-72
2022/04/24 09:02:02;;;;;;;4.30;2.70;;;15.10;81.20;;;;;;4966162;28;20043;-72
2022/04/24 09:04:31;;;;;;;3.92;2.47;;;15.20;79.20;;;;;;4963449;28;20043;-72
2022/04/24 09:06:58;;;;;;;3.70;2.70;;;15.50;76.70;;;;;;4957662;28;20078;-72
2022/04/24 09:09:24;;;;;;;3.47;2.17;;;15.60;72.80;;;;;;4955735;28;20035;-72
2022/04/24 09:11:50;;;;;;;5.22;2.38;;;15.70;70.70;;;;;;4971009;28;20042;-72
2022/04/24 09:14:17;;;;;;;5.65;2.53;;;15.60;65.90;;;;;;4974873;28;20125;-72
2022/04/24 09:16:48;;;;;;;5.18;2.25;;;15.80;66.40;;;;;;4971855;28;20130;-72
2022/04/24 09:19:24;;;;;;;3.67;2.15;;;15.90;64.50;;;;;;4967315;28;20065;-72
2022/04/24 09:21:52;;;;;;;5.65;2.50;;;16.00;66.40;;;;;;4966057;28;20125;-72
2022/04/24 09:24:19;;;;;;;2.97;2.10;;;16.10;63.90;;;;;;4965913;28;20050;-72
2022/04/24 09:26:56;;;;;;;3.65;2.30;;;16.20;64.90;;;;;;4955103;29;20598;-72
2022/04/24 09:29:22;;;;;;;5.15;2.42;;;16.30;64.80;;;;;;4956165;28;20038;-72
2022/04/24 09:31:49;;;;;;;4.50;2.45;;;16.50;61.90;;;;;;4938994;29;20035;-72
2022/04/24 09:34:19;;;;;;;3.85;2.15;;;16.60;62.40;;;;;;4971670;28;20045;-72
2022/04/24 09:36:58;;;;;;;4.72;2.50;;;16.80;61.80;;;;;;4974002;28;20146;-72
2022/04/24 09:39:31;;;;;;;5.03;2.38;;;17.00;60.60;;;;;;4972882;28;20039;-71
2022/04/24 09:42:04;;;;;;;4.57;2.40;;;16.90;59.60;;;;;;4970951;28;20047;-71
2022/04/24 09:44:56;;;;;;;;;;;17.00;60.00;;;;;;4974690;28;20054;-72
2022/04/24 09:47:25;;;;;;;4.53;2.60;;;17.10;58.20;;;;;;4967079;28;19930;-71
2022/04/24 09:49:52;;;;;;;5.78;2.78;;;17.20;58.30;;;;;;4969908;28;20047;-72
2022/04/24 09:52:23;;;;;;;5.18;2.28;;;17.20;56.60;;;;;;4972497;28;20043;-71
2022/04/24 09:54:54;;;;;;;4.78;2.53;;;17.30;58.80;;;;;;4960541;28;20069;-72
2022/04/24 09:57:22;;;;;;;3.58;2.47;;;17.50;57.30;;;;;;4964800;28;20038;-72
2022/04/24 09:59:48;;;;;;;4.88;2.40;;;17.50;58.30;;;;;;4971819;28;20386;-72
2022/04/24 10:02:18;;;;;;;6.63;2.63;;;17.60;56.90;;;;;;4953734;28;20652;-72
2022/04/24 10:04:44;;;;;;;6.30;2.70;;;17.70;54.50;;;;;;4952571;28;20043;-74
2022/04/24 10:07:11;;;;;;;3.88;2.65;;;17.80;55.10;;;;;;4954852;28;20046;-72
2022/04/24 10:09:42;;;;;;;4.78;2.80;;;17.80;57.60;;;;;;4952128;28;20720;-72
2022/04/24 10:12:19;;;;;;;4.43;2.58;;;17.90;57.40;;;;;;4953851;28;20517;-72
2022/04/24 10:14:57;;;;;;;5.03;2.80;;;18.00;55.50;;;;;;4954242;29;20049;-72
2022/04/24 10:17:37;;;;;;;4.60;2.85;;;18.20;54.40;;;;;;4954515;29;20525;-72
2022/04/24 10:20:21;;;;;;;3.97;2.47;;;18.20;53.70;;;;;;4969732;28;20501;-72
2022/04/24 10:22:49;;;;;;;3.85;2.55;;;18.30;52.60;;;;;;4973070;28;20057;-72
2022/04/24 10:25:15;;;;;;;4.28;2.90;;;18.30;53.30;;;;;;4957068;28;20433;-72
2022/04/24 10:27:46;;;;;;;5.25;3.13;;;18.40;53.60;;;;;;4973660;28;20556;-72
2022/04/24 10:30:25;;;;;;;5.75;2.80;;;18.40;52.90;;;;;;4973034;28;20446;-72
2022/04/24 10:33:22;;;;;;;3.47;2.72;;;18.60;53.60;;;;;;4973385;28;20366;-72
2022/04/24 10:35:50;;;;;;;4.20;2.45;;;18.70;52.20;;;;;;4973427;28;20050;-72
2022/04/24 10:38:18;;;;;;;4.00;2.33;;;18.70;50.00;;;;;;4973363;28;20143;-72
2022/04/24 10:41:03;;;;;;;6.45;2.60;;;18.70;50.10;;;;;;4972003;28;20089;-72
2022/04/24 10:43:46;;;;;;;4.35;2.13;;;18.70;50.10;;;;;;4966912;28;20047;-72
2022/04/24 10:46:35;;;;;;;4.30;2.40;;;18.80;49.80;;;;;;4960552;28;20051;-72
2022/04/24 10:49:11;;;;;;;4.82;2.05;;;19.00;50.20;;;;;;4966569;28;20405;-72
2022/04/24 10:51:40;;;;;;;4.25;1.90;;;19.20;51.60;;;;;;4968220;28;20066;-72
2022/04/24 10:54:08;;;;;;;3.03;2.00;;;19.30;47.50;;;;;;4960756;28;20030;-72
2022/04/24 10:56:35;;;;;;;7.72;2.10;;;19.40;49.10;;;;;;4971337;28;20191;-72
2022/04/24 10:59:18;;;;;;;5.50;1.75;;;19.40;47.30;;;;;;4964831;28;20035;-72
2022/04/24 11:01:47;;;;;;;6.10;1.85;;;19.50;47.80;;;;;;4952619;28;20047;-72
2022/04/24 11:04:14;;;;;;;2.88;2.30;;;19.60;48.50;;;;;;4955406;28;20034;-72
2022/04/24 11:06:55;;;;;;;3.97;2.03;;;19.70;47.50;;;;;;4966307;28;20109;-71
2022/04/24 11:09:22;;;;;;;4.95;1.85;;;19.80;48.10;;;;;;4970645;28;20069;-71
2022/04/24 11:11:50;;;;;;;4.78;1.80;;;19.80;47.40;;;;;;4970274;28;20043;-72
2022/04/24 11:14:21;;;;;;;4.88;1.90;;;19.90;47.50;;;;;;4951914;28;20039;-72
2022/04/24 11:16:56;;;;;;;2.95;2.08;;;19.90;46.20;;;;;;4969669;28;20436;-72
2022/04/24 11:19:30;;;;;;;2.05;1.80;;;19.80;44.00;;;;;;4971614;28;20043;-72
2022/04/24 11:22:01;;;;;;;4.28;1.85;;;19.80;45.20;;;;;;4971465;28;20042;-72
2022/04/24 11:24:29;;;;;;;8.73;2.20;;;19.70;46.00;;;;;;4970269;28;20043;-72
2022/04/24 11:26:56;;;;;;;2.47;1.83;;;19.60;47.20;;;;;;4964900;28;20053;-72
2022/04/24 11:29:22;;;;;;;2.60;1.63;;;19.70;47.90;;;;;;4965827;28;20043;-72
2022/04/24 11:31:51;;;;;;;4.07;1.70;;;19.90;47.20;;;;;;4965648;28;20509;-72
2022/04/24 11:34:19;;;;;;;5.30;1.60;;;19.90;43.70;;;;;;4963281;28;20035;-72
2022/04/24 11:36:45;;;;;;;6.03;1.50;;;19.90;43.90;;;;;;4967465;28;20043;-72
2022/04/24 11:39:10;;;;;;;1.27;1.17;;;19.90;43.70;;;;;;4965021;28;20049;-72
2022/04/24 11:41:36;;;;;;;6.03;1.50;;;20.00;42.60;;;;;;4952249;28;20038;-72
2022/04/24 11:50:13;;;;;;;5.78;1.70;;;20.10;43.20;;;;;;4972818;28;20054;-72
2022/04/24 11:52:25;;;;;;;3.70;1.70;;;20.30;44.80;;;;;;4965444;28;20035;-72
2022/04/24 11:54:51;;;;;;;4.07;1.60;;;20.50;44.30;;;;;;4963459;28;20126;-72
2022/04/24 11:57:20;;;;;;;3.28;1.80;;;20.70;44.00;;;;;;4947200;28;20039;-72
2022/04/24 11:59:54;;;;;;;6.32;2.20;;;21.00;47.50;;;;;;4965089;28;20497;-71
2022/04/24 12:02:24;;;;;;;5.00;1.63;;;21.10;45.20;;;;;;4964306;28;20122;-71
2022/04/24 12:04:50;;;;;;;3.83;2.00;;;21.00;45.20;;;;;;4963295;28;20069;-71
2022/04/24 12:07:16;;;;;;;3.22;1.70;;;20.90;46.80;;;;;;4969584;28;20441;-71
2022/04/24 12:09:42;;;;;;;6.53;1.90;;;20.80;46.60;;;;;;4971285;28;20051;-71
2022/04/24 12:12:13;;;;;;;4.57;1.67;;;20.90;45.40;;;;;;4960969;28;20050;-72
2022/04/24 12:14:48;;;;;;;2.78;1.38;;;20.90;43.30;;;;;;4952433;29;20094;-72
2022/04/24 12:17:14;;;;;;;3.72;1.90;;;20.80;45.20;;;;;;4961367;28;20049;-72
2022/04/24 12:19:41;;;;;;;3.55;1.50;;;20.70;44.40;;;;;;4960421;28;20032;-72
2022/04/24 12:22:11;;;;;;;4.68;1.40;;;20.60;46.00;;;;;;4962954;28;20042;-72
2022/04/24 12:24:42;;;;;;;2.95;1.20;;;20.70;44.60;;;;;;4970930;28;20042;-72
2022/04/24 12:27:09;;;;;;;3.03;1.17;;;20.70;42.40;;;;;;4968999;28;20086;-72
2022/04/24 12:29:40;;;;;;;1.77;1.40;;;20.70;40.10;;;;;;4963241;28;20043;-72
2022/04/24 12:32:07;;;;;;;3.35;2.17;;;20.70;43.20;;;;;;4962321;28;20027;-72
2022/04/24 12:34:36;;;;;;;3.92;1.83;;;20.60;45.00;;;;;;4982726;28;20043;-72
2022/04/24 12:37:02;;;;;;;4.85;1.83;;;20.30;45.60;;;;;;4966371;28;20054;-72
2022/04/24 12:39:28;;;;;;;5.35;2.00;;;20.20;47.60;;;;;;4963419;28;20043;-72
2022/04/24 12:41:54;;;;;;;7.18;2.22;;;20.00;47.30;;;;;;4960479;28;20071;-73
2022/04/24 12:44:20;;;;;;;5.18;2.00;;;19.70;45.90;;;;;;4959892;28;20038;-72
2022/04/24 12:46:49;;;;;;;6.72;2.20;;;19.50;47.30;;;;;;4961733;28;20039;-72
2022/04/24 12:49:27;;;;;;;5.32;1.90;;;19.60;49.00;;;;;;4968403;28;20590;-72
2022/04/24 12:51:53;;;;;;;3.63;2.20;;;19.90;47.80;;;;;;4969645;28;20039;-72
2022/04/24 12:54:18;;;;;;;3.63;1.88;;;20.20;48.50;;;;;;4964356;28;20031;-72
2022/04/24 12:56:44;;;;;;;4.75;2.10;;;20.40;46.10;;;;;;4965947;28;20058;-72
2022/04/24 12:59:10;;;;;;;7.78;1.60;;;20.50;46.10;;;;;;4968201;28;20038;-72
2022/04/24 13:01:37;;;;;;;2.72;1.67;;;20.60;43.00;;;;;;4965532;28;20042;-72